createdAt,value
2023-05-18T00:02:28.351Z,8.35
2023-05-18T00:04:56.989Z,8.31
2023-05-18T00:07:25.254Z,8.27
2023-05-18T00:09:53.446Z,8.26
2023-05-18T00:12:21.670Z,8.24
2023-05-18T00:14:49.853Z,8.22
2023-05-18T00:17:18.153Z,8.24
2023-05-18T00:19:47.829Z,8.28
2023-05-18T00:22:18.999Z,8.25
2023-05-18T00:24:47.701Z,8.24
2023-05-18T00:27:16.311Z,8.28
2023-05-18T00:29:44.519Z,8.25
2023-05-18T00:32:13.850Z,8.26
2023-05-18T00:34:49.431Z,8.23
2023-05-18T00:37:17.617Z,8.19
2023-05-18T00:39:52.515Z,8.16
2023-05-18T00:42:20.945Z,8.14
2023-05-18T00:44:49.192Z,8.15
2023-05-18T00:47:18.508Z,8.14
2023-05-18T00:49:46.877Z,8.13
2023-05-18T00:52:16.924Z,8.10
2023-05-18T00:54:45.154Z,8.11
2023-05-18T00:57:13.570Z,8.07
2023-05-18T00:59:42.037Z,8.11
2023-05-18T01:02:12.200Z,8.10
2023-05-18T01:04:41.486Z,8.09
2023-05-18T01:07:10.097Z,8.06
2023-05-18T01:09:39.804Z,8.13
2023-05-18T01:12:14.063Z,8.12
2023-05-18T01:14:46.688Z,8.07
2023-05-18T01:17:24.687Z,8.06
2023-05-18T01:20:14.678Z,8.03
2023-05-18T01:22:56.827Z,8.01
2023-05-18T01:25:34.747Z,7.96
2023-05-18T01:28:08.866Z,7.94
2023-05-18T01:30:41.898Z,7.93
2023-05-18T01:33:11.675Z,7.93
2023-05-18T01:35:41.751Z,7.94
2023-05-18T01:38:09.938Z,7.92
2023-05-18T01:40:41.713Z,7.91
2023-05-18T01:43:12.756Z,7.87
2023-05-18T01:45:44.717Z,7.89
2023-05-18T01:48:13.593Z,7.86
2023-05-18T01:50:44.714Z,7.83
2023-05-18T01:53:16.025Z,7.83
2023-05-18T01:55:44.944Z,7.82
2023-05-18T01:58:15.176Z,7.76
2023-05-18T02:00:43.540Z,7.80
2023-05-18T02:03:13.632Z,7.72
2023-05-18T02:05:42.011Z,7.73
2023-05-18T02:08:10.301Z,7.71
2023-05-18T02:10:38.612Z,7.71
2023-05-18T02:13:08.906Z,7.69
2023-05-18T02:15:38.498Z,7.67
2023-05-18T02:18:08.499Z,7.65
2023-05-18T02:20:38.139Z,7.64
2023-05-18T02:23:06.316Z,7.62
2023-05-18T02:25:35.620Z,7.62
2023-05-18T02:28:03.871Z,7.59
2023-05-18T02:30:33.350Z,7.57
2023-05-18T02:33:04.485Z,7.61
2023-05-18T02:35:32.966Z,7.57
2023-05-18T02:38:02.630Z,7.61
2023-05-18T02:40:31.210Z,7.60
2023-05-18T02:42:59.433Z,7.59
2023-05-18T02:45:30.714Z,7.59
2023-05-18T02:47:59.281Z,7.54
2023-05-18T02:50:28.949Z,7.49
2023-05-18T02:52:57.655Z,7.45
2023-05-18T02:55:25.884Z,7.45
2023-05-18T02:58:03.305Z,7.45
2023-05-18T03:00:55.289Z,7.46
2023-05-18T03:03:25.873Z,7.43
2023-05-18T03:05:55.982Z,7.35
2023-05-18T03:08:26.840Z,7.38
2023-05-18T03:10:55.188Z,7.31
2023-05-18T03:13:23.443Z,7.34
2023-05-18T03:15:52.001Z,7.30
2023-05-18T03:18:21.006Z,7.20
2023-05-18T03:20:49.992Z,7.17
2023-05-18T03:23:20.266Z,7.18
2023-05-18T03:25:55.336Z,7.12
2023-05-18T03:28:26.543Z,7.07
2023-05-18T03:30:54.816Z,7.14
2023-05-18T03:33:23.213Z,7.17
2023-05-18T03:35:52.450Z,7.12
2023-05-18T03:38:22.233Z,7.07
2023-05-18T03:40:57.788Z,7.03
2023-05-18T03:43:26.338Z,6.99
2023-05-18T03:45:55.213Z,7.00
2023-05-18T03:48:24.506Z,7.03
2023-05-18T03:50:52.806Z,7.01
2023-05-18T03:53:23.330Z,7.01
2023-05-18T03:55:52.421Z,7.03
2023-05-18T03:58:21.192Z,7.04
2023-05-18T04:00:49.722Z,7.06
2023-05-18T04:03:18.348Z,7.05
2023-05-18T04:05:47.423Z,7.05
2023-05-18T04:08:15.741Z,7.06
2023-05-18T04:10:45.785Z,7.07
2023-05-18T04:13:14.187Z,7.04
2023-05-18T04:15:43.898Z,7.11
2023-05-18T04:18:14.592Z,7.13
2023-05-18T04:20:46.284Z,7.12
2023-05-18T04:23:14.690Z,7.14
2023-05-18T04:25:43.812Z,7.19
2023-05-18T04:28:13.574Z,7.20
2023-05-18T04:30:42.073Z,7.14
2023-05-18T04:33:10.758Z,7.08
2023-05-18T04:35:39.308Z,7.16
2023-05-18T04:38:07.683Z,7.24
2023-05-18T04:40:38.085Z,7.21
2023-05-18T04:43:08.449Z,7.21
2023-05-18T04:45:38.255Z,7.22
2023-05-18T04:48:07.016Z,7.24
2023-05-18T04:50:35.933Z,7.26
2023-05-18T04:53:07.868Z,7.29
2023-05-18T04:55:36.402Z,7.25
2023-05-18T04:58:07.668Z,7.28
2023-05-18T05:00:35.921Z,7.33
2023-05-18T05:03:05.747Z,7.36
2023-05-18T05:05:35.214Z,7.37
2023-05-18T05:08:04.830Z,7.31
2023-05-18T05:10:33.130Z,7.32
2023-05-18T05:13:01.580Z,7.35
2023-05-18T05:15:30.335Z,7.32
2023-05-18T05:17:59.789Z,7.29
2023-05-18T05:20:29.530Z,7.34
2023-05-18T05:22:57.885Z,7.39
2023-05-18T05:25:28.010Z,7.43
2023-05-18T05:27:56.569Z,7.37
2023-05-18T05:30:25.786Z,7.46
2023-05-18T05:32:54.149Z,7.52
2023-05-18T05:35:22.474Z,7.53
2023-05-18T05:37:52.308Z,7.55
2023-05-18T05:40:21.772Z,7.63
2023-05-18T05:42:51.847Z,7.67
2023-05-18T05:45:20.374Z,7.65
2023-05-18T05:47:56.070Z,7.74
2023-05-18T05:50:26.050Z,7.83
2023-05-18T05:52:58.363Z,7.90
2023-05-18T05:55:28.038Z,8.00
2023-05-18T05:57:57.068Z,8.06
2023-05-18T06:00:27.643Z,8.09
2023-05-18T06:03:01.371Z,8.14
2023-05-18T06:05:34.991Z,8.27
2023-05-18T06:08:06.034Z,8.33
2023-05-18T06:10:34.318Z,8.41
2023-05-18T06:13:02.645Z,8.45
2023-05-18T06:15:39.513Z,8.56
2023-05-18T06:18:08.982Z,8.60
2023-05-18T06:20:38.216Z,8.63
2023-05-18T06:23:07.924Z,8.77
2023-05-18T06:25:47.330Z,8.83
2023-05-18T06:28:30.049Z,8.87
2023-05-18T06:31:08.346Z,8.92
2023-05-18T06:34:11.712Z,8.99
2023-05-18T06:36:40.053Z,8.99
2023-05-18T06:39:09.871Z,9.07
2023-05-18T06:41:38.476Z,9.08
2023-05-18T06:44:07.445Z,9.13
2023-05-18T06:46:38.617Z,9.19
2023-05-18T06:49:13.734Z,9.30
2023-05-18T06:51:43.746Z,9.32
2023-05-18T06:54:14.171Z,9.36
2023-05-18T06:56:42.628Z,9.38
2023-05-18T06:59:11.161Z,9.39
2023-05-18T07:01:40.256Z,9.41
2023-05-18T07:04:09.291Z,9.44
2023-05-18T07:06:38.377Z,9.55
2023-05-18T07:09:08.087Z,9.59
2023-05-18T07:11:37.704Z,9.62
2023-05-18T07:14:06.133Z,9.77
2023-05-18T07:16:34.465Z,9.84
2023-05-18T07:19:03.710Z,9.93
2023-05-18T07:21:32.273Z,10.04
2023-05-18T07:24:00.638Z,10.10
2023-05-18T07:26:29.789Z,10.20
2023-05-18T07:28:59.509Z,10.25
2023-05-18T07:31:28.033Z,10.33
2023-05-18T07:33:56.363Z,10.38
2023-05-18T07:36:25.621Z,10.39
2023-05-18T07:38:56.886Z,10.49
2023-05-18T07:41:25.201Z,10.62
2023-05-18T07:43:53.615Z,10.71
2023-05-18T07:46:23.244Z,10.68
2023-05-18T07:48:51.546Z,10.81
2023-05-18T07:51:19.834Z,10.84
2023-05-18T07:53:48.277Z,10.87
2023-05-18T07:56:16.857Z,10.91
2023-05-18T07:58:45.661Z,11.01
2023-05-18T08:01:14.004Z,11.04
2023-05-18T08:03:43.778Z,11.12
2023-05-18T08:06:12.144Z,11.15
2023-05-18T08:08:40.681Z,11.24
2023-05-18T08:11:08.993Z,11.34
2023-05-18T08:13:37.395Z,11.42
2023-05-18T08:16:11.940Z,11.48
2023-05-18T08:18:41.159Z,11.66
2023-05-18T08:21:11.386Z,11.64
2023-05-18T08:23:40.611Z,11.61
2023-05-18T08:26:10.512Z,11.60
2023-05-18T08:28:40.049Z,11.67
2023-05-18T08:31:08.332Z,11.73
2023-05-18T08:33:36.618Z,11.61
2023-05-18T08:36:05.235Z,11.65
2023-05-18T08:38:35.144Z,11.84
2023-05-18T08:41:08.559Z,11.89
2023-05-18T08:43:39.750Z,11.99
2023-05-18T08:46:17.460Z,12.06
2023-05-18T08:48:46.807Z,12.14
2023-05-18T08:51:17.113Z,12.19
2023-05-18T08:53:47.280Z,12.25
2023-05-18T08:56:16.280Z,12.30
2023-05-18T08:58:46.419Z,12.48
2023-05-18T09:01:15.282Z,12.55
2023-05-18T09:03:43.637Z,12.67
2023-05-18T09:06:12.010Z,12.74
2023-05-18T09:08:40.314Z,12.84
2023-05-18T09:11:10.142Z,12.94
2023-05-18T09:13:39.888Z,12.90
2023-05-18T09:16:08.974Z,13.04
2023-05-18T09:18:37.518Z,13.07
2023-05-18T09:21:06.267Z,13.08
2023-05-18T09:23:34.632Z,13.01
2023-05-18T09:26:04.847Z,13.05
2023-05-18T09:28:38.042Z,12.91
2023-05-18T09:31:07.859Z,12.97
2023-05-18T09:33:37.762Z,13.00
2023-05-18T09:36:06.675Z,12.96
2023-05-18T09:38:38.219Z,12.99
2023-05-18T09:41:10.909Z,12.94
2023-05-18T09:43:40.856Z,13.01
2023-05-18T09:46:09.815Z,13.14
2023-05-18T09:48:39.004Z,13.25
2023-05-18T09:51:07.807Z,13.12
2023-05-18T09:53:37.428Z,13.04
2023-05-18T09:56:09.465Z,12.85
2023-05-18T09:58:37.826Z,13.08
2023-05-18T10:01:07.588Z,13.19
2023-05-18T10:03:37.969Z,13.28
2023-05-18T10:06:07.504Z,13.42
2023-05-18T10:08:36.371Z,13.62
2023-05-18T10:11:05.034Z,13.75
2023-05-18T10:13:34.040Z,13.80
2023-05-18T10:16:03.952Z,13.84
2023-05-18T10:18:34.565Z,14.00
2023-05-18T10:21:04.343Z,14.01
2023-05-18T10:23:33.781Z,14.08
2023-05-18T10:26:02.459Z,13.99
2023-05-18T10:28:32.732Z,14.13
2023-05-18T10:31:01.592Z,14.27
2023-05-18T10:33:30.572Z,14.27
2023-05-18T10:36:00.260Z,14.39
2023-05-18T10:38:29.543Z,14.31
2023-05-18T10:41:00.319Z,14.38
2023-05-18T10:43:29.374Z,14.39
2023-05-18T10:45:59.026Z,14.39
2023-05-18T10:48:28.334Z,14.60
2023-05-18T10:50:58.049Z,14.81
2023-05-18T10:53:29.467Z,14.84
2023-05-18T10:55:57.818Z,14.95
2023-05-18T10:58:27.303Z,14.92
2023-05-18T11:00:57.264Z,14.88
2023-05-18T11:03:27.129Z,14.86
2023-05-18T11:06:05.299Z,14.87
2023-05-18T11:08:34.977Z,14.92
2023-05-18T11:11:04.492Z,14.84
2023-05-18T11:13:33.537Z,14.92
2023-05-18T11:16:06.628Z,15.09
2023-05-18T11:18:45.842Z,14.94
2023-05-18T11:21:32.589Z,14.94
2023-05-18T11:24:36.550Z,15.24
2023-05-18T11:27:13.402Z,15.16
2023-05-18T11:29:42.385Z,15.20
2023-05-18T11:32:29.984Z,15.41
2023-05-18T11:34:59.744Z,15.60
2023-05-18T11:37:51.874Z,15.24
2023-05-18T11:40:49.577Z,15.07
2023-05-18T11:43:24.541Z,14.82
2023-05-18T11:45:58.996Z,14.60
2023-05-18T11:48:29.973Z,14.95
2023-05-18T11:50:58.723Z,15.27
2023-05-18T11:53:28.426Z,15.45
2023-05-18T11:55:58.042Z,15.51
2023-05-18T11:58:26.619Z,15.39
2023-05-18T12:00:55.929Z,15.32
2023-05-18T12:03:25.831Z,15.29
2023-05-18T12:05:54.423Z,15.05
2023-05-18T12:08:29.269Z,15.06
2023-05-18T12:10:59.677Z,15.17
2023-05-18T12:13:28.785Z,15.37
2023-05-18T12:15:59.002Z,15.20
2023-05-18T12:18:29.588Z,15.18
2023-05-18T12:20:57.734Z,15.13
2023-05-18T12:23:37.008Z,15.23
2023-05-18T12:26:06.853Z,15.39
2023-05-18T12:28:34.999Z,15.24
2023-05-18T12:31:07.420Z,15.30
2023-05-18T12:33:35.857Z,15.36
2023-05-18T12:36:04.097Z,15.26
2023-05-18T12:38:32.825Z,15.17
2023-05-18T12:41:01.333Z,15.08
2023-05-18T12:43:34.827Z,15.06
2023-05-18T12:46:03.333Z,15.36
2023-05-18T12:48:37.155Z,15.27
2023-05-18T12:51:06.059Z,15.29
2023-05-18T12:53:42.843Z,15.12
2023-05-18T12:56:11.691Z,15.26
2023-05-18T12:58:41.711Z,15.19
2023-05-18T13:01:10.541Z,15.33
2023-05-18T13:03:40.795Z,15.34
2023-05-18T13:06:10.416Z,15.23
2023-05-18T13:08:38.840Z,15.19
2023-05-18T13:11:14.464Z,15.29
2023-05-18T13:14:03.494Z,15.61
2023-05-18T13:16:34.425Z,15.45
2023-05-18T13:19:04.049Z,15.46
2023-05-18T13:21:32.392Z,15.44
2023-05-18T13:24:00.973Z,15.27
2023-05-18T13:26:29.145Z,15.26
2023-05-18T13:28:58.384Z,15.54
2023-05-18T13:31:29.515Z,15.45
2023-05-18T13:33:57.791Z,15.63
2023-05-18T13:36:26.364Z,15.74
2023-05-18T13:38:54.630Z,15.83
2023-05-18T13:41:22.744Z,15.48
2023-05-18T13:43:50.975Z,15.55
2023-05-18T13:46:20.121Z,15.82
2023-05-18T13:48:49.711Z,15.80
2023-05-18T13:51:17.920Z,15.57
2023-05-18T13:53:46.056Z,15.52
2023-05-18T13:56:14.286Z,15.49
2023-05-18T13:58:43.664Z,15.39
2023-05-18T14:01:13.754Z,15.70
2023-05-18T14:03:42.236Z,15.99
2023-05-18T14:06:11.826Z,16.02
2023-05-18T14:08:39.936Z,15.87
2023-05-18T14:11:08.137Z,16.11
2023-05-18T14:13:36.312Z,16.11
2023-05-18T14:16:04.499Z,15.92
2023-05-18T14:18:32.787Z,15.82
2023-05-18T14:21:02.410Z,15.61
2023-05-18T14:23:32.049Z,15.65
2023-05-18T14:26:00.258Z,15.79
2023-05-18T14:28:30.175Z,15.79
2023-05-18T14:30:59.497Z,15.83
2023-05-18T14:33:27.713Z,15.61
2023-05-18T14:35:57.155Z,15.51
2023-05-18T14:38:27.058Z,15.52
2023-05-18T14:40:56.616Z,15.40
2023-05-18T14:43:24.824Z,15.38
2023-05-18T14:46:04.271Z,15.40
2023-05-18T14:48:36.692Z,15.29
2023-05-18T14:51:04.956Z,15.34
2023-05-18T14:53:33.082Z,15.35
2023-05-18T14:56:06.041Z,15.29
2023-05-18T14:58:34.203Z,15.50
2023-05-18T15:01:02.538Z,15.58
2023-05-18T15:03:30.800Z,15.42
2023-05-18T15:05:59.130Z,15.36
2023-05-18T15:08:27.378Z,15.42
2023-05-18T15:10:55.881Z,15.43
2023-05-18T15:13:25.369Z,15.47
2023-05-18T15:15:53.546Z,15.41
2023-05-18T15:18:21.700Z,15.33
2023-05-18T15:20:50.034Z,15.06
2023-05-18T15:23:18.174Z,15.04
2023-05-18T15:25:46.508Z,15.06
2023-05-18T15:28:14.653Z,14.92
2023-05-18T15:30:44.175Z,15.00
2023-05-18T15:33:14.187Z,14.91
2023-05-18T15:35:42.354Z,14.74
2023-05-18T15:38:10.531Z,14.67
2023-05-18T15:40:38.646Z,14.74
2023-05-18T15:43:06.808Z,14.87
2023-05-18T15:45:35.224Z,14.72
2023-05-18T15:48:05.155Z,14.83
2023-05-18T15:50:33.858Z,14.79
2023-05-18T15:53:02.030Z,14.74
2023-05-18T15:55:30.119Z,14.59
2023-05-18T15:57:58.300Z,14.70
2023-05-18T16:00:26.497Z,14.68
2023-05-18T16:02:54.694Z,14.70
2023-05-18T16:05:24.384Z,14.54
2023-05-18T16:07:52.508Z,14.50
2023-05-18T16:10:21.197Z,14.73
2023-05-18T16:12:49.318Z,14.68
2023-05-18T16:15:19.095Z,14.66
2023-05-18T16:17:47.441Z,14.51
2023-05-18T16:20:17.775Z,14.45
2023-05-18T16:22:47.817Z,14.33
2023-05-18T16:25:16.068Z,14.52
2023-05-18T16:27:44.354Z,14.43
2023-05-18T16:30:13.133Z,14.37
2023-05-18T16:32:43.509Z,14.26
2023-05-18T16:35:12.202Z,14.24
2023-05-18T16:37:40.399Z,14.29
2023-05-18T16:40:10.734Z,14.25
2023-05-18T16:42:38.847Z,14.16
2023-05-18T16:45:07.610Z,14.11
2023-05-18T16:47:35.743Z,14.21
2023-05-18T16:50:03.885Z,14.37
2023-05-18T16:52:32.032Z,14.42
2023-05-18T16:55:00.205Z,14.44
2023-05-18T16:57:30.101Z,14.17
2023-05-18T16:59:58.382Z,13.99
2023-05-18T17:02:26.694Z,14.08
2023-05-18T17:04:55.004Z,14.19
2023-05-18T17:07:23.134Z,14.21
2023-05-18T17:09:51.248Z,14.13
2023-05-18T17:12:19.388Z,14.15
2023-05-18T17:14:51.464Z,14.17
2023-05-18T17:17:20.629Z,14.17
2023-05-18T17:19:48.890Z,14.30
2023-05-18T17:22:17.021Z,14.34
2023-05-18T17:24:45.332Z,14.27
2023-05-18T17:27:13.597Z,14.14
2023-05-18T17:30:09.285Z,13.90
2023-05-18T17:32:38.970Z,13.89
2023-05-18T17:35:11.224Z,13.97
2023-05-18T17:37:41.368Z,13.94
2023-05-18T17:40:10.996Z,14.01
2023-05-18T17:42:39.141Z,14.08
2023-05-18T17:45:09.803Z,13.93
2023-05-18T17:47:38.597Z,14.00
2023-05-18T17:50:07.943Z,13.82
2023-05-18T17:52:36.131Z,14.00
2023-05-18T17:55:04.404Z,13.95
2023-05-18T17:57:32.956Z,14.00
2023-05-18T18:00:01.136Z,13.90
2023-05-18T18:02:31.043Z,13.84
2023-05-18T18:04:59.336Z,13.86
2023-05-18T18:07:27.667Z,13.77
2023-05-18T18:09:55.974Z,13.67
2023-05-18T18:12:24.486Z,13.65
2023-05-18T18:14:52.753Z,13.64
2023-05-18T18:17:21.022Z,13.41
2023-05-18T18:19:50.658Z,13.54
2023-05-18T18:22:18.987Z,13.60
2023-05-18T18:24:47.239Z,13.54
2023-05-18T18:27:19.306Z,13.72
2023-05-18T18:29:48.917Z,13.65
2023-05-18T18:32:17.144Z,13.39
2023-05-18T18:34:45.726Z,13.29
2023-05-18T18:37:15.298Z,13.31
2023-05-18T18:39:43.708Z,13.21
2023-05-18T18:42:11.915Z,13.33
2023-05-18T18:44:40.109Z,13.39
2023-05-18T18:47:08.467Z,13.48
2023-05-18T18:49:36.708Z,13.27
2023-05-18T18:52:05.538Z,13.34
2023-05-18T18:54:35.093Z,13.41
2023-05-18T18:57:03.417Z,13.45
2023-05-18T18:59:31.709Z,13.20
2023-05-18T19:02:00.006Z,13.23
2023-05-18T19:04:28.793Z,12.97
2023-05-18T19:07:01.750Z,13.14
2023-05-18T19:09:32.681Z,13.05
2023-05-18T19:12:02.456Z,12.95
2023-05-18T19:14:31.822Z,12.86
2023-05-18T19:17:00.135Z,12.84
2023-05-18T19:19:29.676Z,12.86
2023-05-18T19:21:58.123Z,12.74
2023-05-18T19:24:26.525Z,12.83
2023-05-18T19:26:54.863Z,12.91
2023-05-18T19:29:25.076Z,12.86
2023-05-18T19:31:54.633Z,12.88
2023-05-18T19:34:23.090Z,12.87
2023-05-18T19:36:53.303Z,12.80
2023-05-18T19:39:21.655Z,12.81
2023-05-18T19:41:51.242Z,12.74
2023-05-18T19:44:19.618Z,12.83
2023-05-18T19:46:49.331Z,12.87
2023-05-18T19:49:17.678Z,12.63
2023-05-18T19:51:46.018Z,12.65
2023-05-18T19:54:14.384Z,12.70
2023-05-18T19:56:42.738Z,12.64
2023-05-18T19:59:11.091Z,12.56
2023-05-18T20:01:39.496Z,12.41
2023-05-18T20:04:09.259Z,12.28
2023-05-18T20:06:37.691Z,12.31
2023-05-18T20:09:06.455Z,12.23
2023-05-18T20:11:34.805Z,12.23
2023-05-18T20:14:03.201Z,12.34
2023-05-18T20:16:34.185Z,12.11
2023-05-18T20:19:03.371Z,12.25
2023-05-18T20:21:33.990Z,12.27
2023-05-18T20:24:02.445Z,12.07
2023-05-18T20:26:32.100Z,12.12
2023-05-18T20:29:00.657Z,12.14
2023-05-18T20:31:28.994Z,12.19
2023-05-18T20:33:57.968Z,12.08
2023-05-18T20:36:26.735Z,12.01
2023-05-18T20:38:56.448Z,12.16
2023-05-18T20:41:25.878Z,12.13
2023-05-18T20:43:54.397Z,12.24
2023-05-18T20:46:24.948Z,12.34
2023-05-18T20:48:55.297Z,12.34
2023-05-18T20:51:24.793Z,12.34
2023-05-18T20:53:53.055Z,12.16
2023-05-18T20:56:22.872Z,12.26
2023-05-18T20:58:51.182Z,12.09
2023-05-18T21:01:21.078Z,12.15
2023-05-18T21:03:49.592Z,12.18
2023-05-18T21:06:17.973Z,12.14
2023-05-18T21:08:46.280Z,12.00
2023-05-18T21:11:14.558Z,12.00
2023-05-18T21:13:44.144Z,11.94
2023-05-18T21:16:12.449Z,12.02
2023-05-18T21:18:40.875Z,12.06
2023-05-18T21:21:09.313Z,11.89
2023-05-18T21:23:37.680Z,11.94
2023-05-18T21:26:06.044Z,11.88
2023-05-18T21:28:34.300Z,11.82
2023-05-18T21:31:04.207Z,11.79
2023-05-18T21:33:32.517Z,11.79
2023-05-18T21:36:01.661Z,11.79
2023-05-18T21:38:29.977Z,11.69
2023-05-18T21:40:58.890Z,11.73
2023-05-18T21:43:27.148Z,11.72
2023-05-18T21:45:55.419Z,11.70
2023-05-18T21:48:25.084Z,11.74
2023-05-18T21:50:53.356Z,11.74
2023-05-18T21:53:21.588Z,11.69
2023-05-18T21:55:49.862Z,11.75
2023-05-18T21:58:18.226Z,11.72
2023-05-18T22:00:46.553Z,11.71
2023-05-18T22:03:14.910Z,11.72
2023-05-18T22:06:09.898Z,11.75
2023-05-18T22:08:38.576Z,11.65
2023-05-18T22:11:06.971Z,11.65
2023-05-18T22:13:35.290Z,11.67
2023-05-18T22:16:03.653Z,11.59
2023-05-18T22:18:31.928Z,11.57
2023-05-18T22:21:00.200Z,11.54
2023-05-18T22:23:29.961Z,11.45
2023-05-18T22:25:58.228Z,11.49
2023-05-18T22:28:26.520Z,11.46
2023-05-18T22:30:54.806Z,11.41
2023-05-18T22:33:23.501Z,11.43
2023-05-18T22:35:51.746Z,11.32
2023-05-18T22:38:20.134Z,11.31
2023-05-18T22:40:53.987Z,11.23
2023-05-18T22:43:22.616Z,11.18
2023-05-18T22:45:50.940Z,11.19
2023-05-18T22:48:19.258Z,11.15
2023-05-18T22:50:48.356Z,11.08
2023-05-18T22:53:16.622Z,11.07
2023-05-18T22:55:44.948Z,11.01
2023-05-18T22:58:15.660Z,11.03
2023-05-18T23:00:43.956Z,10.87
2023-05-18T23:03:13.308Z,10.96
2023-05-18T23:05:43.478Z,10.86
2023-05-18T23:08:12.368Z,10.77
2023-05-18T23:10:42.095Z,10.80
2023-05-18T23:13:10.387Z,10.81
2023-05-18T23:15:41.548Z,10.71
2023-05-18T23:18:12.516Z,10.67
2023-05-18T23:20:41.654Z,10.71
2023-05-18T23:23:10.019Z,10.67
2023-05-18T23:25:38.292Z,10.66
2023-05-18T23:28:06.594Z,10.72
2023-05-18T23:30:34.891Z,10.69
2023-05-18T23:33:06.193Z,10.79
2023-05-18T23:35:35.895Z,10.79
2023-05-18T23:38:06.429Z,10.83
2023-05-18T23:40:35.090Z,10.83
2023-05-18T23:43:03.960Z,10.91
2023-05-18T23:45:32.811Z,10.94
2023-05-18T23:48:03.051Z,10.95
2023-05-18T23:50:33.900Z,10.97
2023-05-18T23:53:05.049Z,11.08
2023-05-18T23:55:34.926Z,11.12
2023-05-18T23:58:03.507Z,11.21
